sensor_id;sensor_type;location;lat;lon;timestamp;P1;durP1;ratioP1;P2;durP2;ratioP2
22715;SDS011;11525;51.152;4.456;2022-10-16T00:01:47;4.63;;;2.20;;
22715;SDS011;11525;51.152;4.456;2022-10-16T00:04:13;3.65;;;2.10;;
22715;SDS011;11525;51.152;4.456;2022-10-16T00:06:39;5.60;;;2.17;;
22715;SDS011;11525;51.152;4.456;2022-10-16T00:09:05;2.75;;;2.22;;
22715;SDS011;11525;51.152;4.456;2022-10-16T00:11:34;2.97;;;1.77;;
22715;SDS011;11525;51.152;4.456;2022-10-16T00:14:03;2.65;;;1.98;;
22715;SDS011;11525;51.152;4.456;2022-10-16T00:16:31;3.15;;;1.90;;
22715;SDS011;11525;51.152;4.456;2022-10-16T00:18:58;2.60;;;2.10;;
22715;SDS011;11525;51.152;4.456;2022-10-16T00:21:26;4.00;;;2.10;;
22715;SDS011;11525;51.152;4.456;2022-10-16T00:23:55;3.20;;;2.05;;
22715;SDS011;11525;51.152;4.456;2022-10-16T00:26:30;5.40;;;2.40;;
22715;SDS011;11525;51.152;4.456;2022-10-16T00:28:57;2.28;;;1.92;;
22715;SDS011;11525;51.152;4.456;2022-10-16T00:31:23;4.47;;;1.88;;
22715;SDS011;11525;51.152;4.456;2022-10-16T00:33:50;3.15;;;2.03;;
22715;SDS011;11525;51.152;4.456;2022-10-16T00:36:17;1.92;;;1.60;;
22715;SDS011;11525;51.152;4.456;2022-10-16T00:38:44;3.50;;;2.00;;
22715;SDS011;11525;51.152;4.456;2022-10-16T00:41:14;4.25;;;1.77;;
22715;SDS011;11525;51.152;4.456;2022-10-16T00:43:45;2.88;;;2.10;;
22715;SDS011;11525;51.152;4.456;2022-10-16T00:46:29;5.63;;;1.80;;
22715;SDS011;11525;51.152;4.456;2022-10-16T00:51:31;5.53;;;1.90;;
22715;SDS011;11525;51.152;4.456;2022-10-16T00:54:04;1.73;;;1.60;;
22715;SDS011;11525;51.152;4.456;2022-10-16T00:56:34;2.47;;;2.05;;
22715;SDS011;11525;51.152;4.456;2022-10-16T00:59:01;2.00;;;1.73;;
22715;SDS011;11525;51.152;4.456;2022-10-16T01:01:32;2.63;;;2.10;;
22715;SDS011;11525;51.152;4.456;2022-10-16T01:03:58;3.55;;;1.80;;
22715;SDS011;11525;51.152;4.456;2022-10-16T01:06:25;1.88;;;1.77;;
22715;SDS011;11525;51.152;4.456;2022-10-16T01:17:10;1.77;;;1.60;;
22715;SDS011;11525;51.152;4.456;2022-10-16T01:25:39;2.90;;;1.88;;
22715;SDS011;11525;51.152;4.456;2022-10-16T01:28:29;2.20;;;2.00;;
22715;SDS011;11525;51.152;4.456;2022-10-16T01:31:01;2.55;;;2.08;;
22715;SDS011;11525;51.152;4.456;2022-10-16T01:33:28;2.72;;;1.90;;
22715;SDS011;11525;51.152;4.456;2022-10-16T01:36:02;2.13;;;1.92;;
22715;SDS011;11525;51.152;4.456;2022-10-16T01:38:36;1.70;;;1.60;;
22715;SDS011;11525;51.152;4.456;2022-10-16T01:41:06;2.47;;;1.77;;
22715;SDS011;11525;51.152;4.456;2022-10-16T01:43:41;5.05;;;1.80;;
22715;SDS011;11525;51.152;4.456;2022-10-16T01:46:18;2.65;;;2.10;;
22715;SDS011;11525;51.152;4.456;2022-10-16T01:48:46;4.60;;;1.98;;
22715;SDS011;11525;51.152;4.456;2022-10-16T01:51:13;3.45;;;1.80;;
22715;SDS011;11525;51.152;4.456;2022-10-16T01:53:40;2.13;;;1.92;;
22715;SDS011;11525;51.152;4.456;2022-10-16T01:56:11;2.40;;;1.90;;
22715;SDS011;11525;51.152;4.456;2022-10-16T01:58:44;2.25;;;1.90;;
22715;SDS011;11525;51.152;4.456;2022-10-16T02:01:15;2.10;;;1.90;;
22715;SDS011;11525;51.152;4.456;2022-10-16T02:03:44;2.15;;;1.95;;
22715;SDS011;11525;51.152;4.456;2022-10-16T02:06:11;4.90;;;2.10;;
22715;SDS011;11525;51.152;4.456;2022-10-16T02:08:37;2.53;;;1.95;;
22715;SDS011;11525;51.152;4.456;2022-10-16T02:11:05;2.53;;;2.05;;
22715;SDS011;11525;51.152;4.456;2022-10-16T02:16:23;4.40;;;2.65;;
22715;SDS011;11525;51.152;4.456;2022-10-16T02:18:59;4.05;;;2.13;;
22715;SDS011;11525;51.152;4.456;2022-10-16T02:27:03;4.15;;;2.20;;
22715;SDS011;11525;51.152;4.456;2022-10-16T02:29:35;4.53;;;2.00;;
22715;SDS011;11525;51.152;4.456;2022-10-16T02:32:09;3.78;;;2.30;;
22715;SDS011;11525;51.152;4.456;2022-10-16T02:34:37;3.00;;;1.88;;
22715;SDS011;11525;51.152;4.456;2022-10-16T02:37:05;4.18;;;2.50;;
22715;SDS011;11525;51.152;4.456;2022-10-16T02:39:32;5.78;;;2.78;;
22715;SDS011;11525;51.152;4.456;2022-10-16T02:41:58;4.72;;;2.75;;
22715;SDS011;11525;51.152;4.456;2022-10-16T02:44:24;6.43;;;3.30;;
22715;SDS011;11525;51.152;4.456;2022-10-16T02:46:50;7.30;;;3.55;;
22715;SDS011;11525;51.152;4.456;2022-10-16T02:49:15;4.93;;;3.00;;
22715;SDS011;11525;51.152;4.456;2022-10-16T02:51:43;6.25;;;3.10;;
22715;SDS011;11525;51.152;4.456;2022-10-16T02:54:08;5.85;;;3.35;;
22715;SDS011;11525;51.152;4.456;2022-10-16T02:56:34;5.95;;;2.95;;
22715;SDS011;11525;51.152;4.456;2022-10-16T02:58:59;5.32;;;2.80;;
22715;SDS011;11525;51.152;4.456;2022-10-16T03:01:25;5.18;;;2.67;;
22715;SDS011;11525;51.152;4.456;2022-10-16T03:03:51;5.20;;;2.85;;
22715;SDS011;11525;51.152;4.456;2022-10-16T03:06:17;3.15;;;2.70;;
22715;SDS011;11525;51.152;4.456;2022-10-16T03:08:42;3.72;;;2.70;;
22715;SDS011;11525;51.152;4.456;2022-10-16T03:11:08;4.32;;;2.90;;
22715;SDS011;11525;51.152;4.456;2022-10-16T03:13:33;3.47;;;2.63;;
22715;SDS011;11525;51.152;4.456;2022-10-16T03:15:59;4.45;;;2.60;;
22715;SDS011;11525;51.152;4.456;2022-10-16T03:18:25;8.77;;;3.30;;
22715;SDS011;11525;51.152;4.456;2022-10-16T03:20:50;3.88;;;2.47;;
22715;SDS011;11525;51.152;4.456;2022-10-16T03:23:16;6.97;;;2.85;;
22715;SDS011;11525;51.152;4.456;2022-10-16T03:25:42;3.78;;;3.00;;
22715;SDS011;11525;51.152;4.456;2022-10-16T03:28:07;4.03;;;2.72;;
22715;SDS011;11525;51.152;4.456;2022-10-16T03:30:33;11.25;;;2.72;;
22715;SDS011;11525;51.152;4.456;2022-10-16T03:32:59;4.90;;;3.30;;
22715;SDS011;11525;51.152;4.456;2022-10-16T03:35:24;4.25;;;2.60;;
22715;SDS011;11525;51.152;4.456;2022-10-16T03:37:50;5.53;;;3.22;;
22715;SDS011;11525;51.152;4.456;2022-10-16T03:40:16;6.32;;;3.20;;
22715;SDS011;11525;51.152;4.456;2022-10-16T03:42:42;3.75;;;2.90;;
22715;SDS011;11525;51.152;4.456;2022-10-16T03:45:08;3.88;;;3.03;;
22715;SDS011;11525;51.152;4.456;2022-10-16T03:47:35;8.25;;;3.50;;
22715;SDS011;11525;51.152;4.456;2022-10-16T03:50:01;3.88;;;2.75;;
22715;SDS011;11525;51.152;4.456;2022-10-16T03:52:28;5.97;;;2.83;;
22715;SDS011;11525;51.152;4.456;2022-10-16T03:54:54;3.20;;;2.90;;
22715;SDS011;11525;51.152;4.456;2022-10-16T03:57:20;5.53;;;2.95;;
22715;SDS011;11525;51.152;4.456;2022-10-16T03:59:46;3.95;;;3.17;;
22715;SDS011;11525;51.152;4.456;2022-10-16T04:02:12;4.78;;;2.80;;
22715;SDS011;11525;51.152;4.456;2022-10-16T04:04:38;5.63;;;2.80;;
22715;SDS011;11525;51.152;4.456;2022-10-16T04:07:04;6.05;;;3.20;;
22715;SDS011;11525;51.152;4.456;2022-10-16T04:09:29;8.48;;;3.15;;
22715;SDS011;11525;51.152;4.456;2022-10-16T04:11:55;7.53;;;2.92;;
22715;SDS011;11525;51.152;4.456;2022-10-16T04:14:21;4.60;;;3.10;;
22715;SDS011;11525;51.152;4.456;2022-10-16T04:16:47;5.03;;;2.90;;
22715;SDS011;11525;51.152;4.456;2022-10-16T04:19:12;5.07;;;3.17;;
22715;SDS011;11525;51.152;4.456;2022-10-16T04:21:38;4.88;;;3.05;;
22715;SDS011;11525;51.152;4.456;2022-10-16T04:24:04;4.97;;;3.17;;
22715;SDS011;11525;51.152;4.456;2022-10-16T04:26:29;4.45;;;3.22;;
22715;SDS011;11525;51.152;4.456;2022-10-16T04:28:55;3.70;;;3.00;;
22715;SDS011;11525;51.152;4.456;2022-10-16T04:31:21;4.15;;;3.42;;
22715;SDS011;11525;51.152;4.456;2022-10-16T04:33:47;6.35;;;2.97;;
22715;SDS011;11525;51.152;4.456;2022-10-16T04:36:13;4.95;;;2.83;;
22715;SDS011;11525;51.152;4.456;2022-10-16T04:38:39;6.50;;;3.03;;
22715;SDS011;11525;51.152;4.456;2022-10-16T04:41:05;9.43;;;3.05;;
22715;SDS011;11525;51.152;4.456;2022-10-16T04:43:31;7.75;;;3.60;;
22715;SDS011;11525;51.152;4.456;2022-10-16T04:45:57;3.95;;;2.90;;
22715;SDS011;11525;51.152;4.456;2022-10-16T04:48:23;4.40;;;3.13;;
22715;SDS011;11525;51.152;4.456;2022-10-16T04:50:48;6.90;;;3.60;;
22715;SDS011;11525;51.152;4.456;2022-10-16T04:53:14;5.38;;;2.80;;
22715;SDS011;11525;51.152;4.456;2022-10-16T04:55:40;6.40;;;3.22;;
22715;SDS011;11525;51.152;4.456;2022-10-16T04:58:06;5.93;;;3.42;;
22715;SDS011;11525;51.152;4.456;2022-10-16T05:00:32;5.60;;;3.47;;
22715;SDS011;11525;51.152;4.456;2022-10-16T05:02:58;6.03;;;3.88;;
22715;SDS011;11525;51.152;4.456;2022-10-16T05:05:25;6.43;;;3.45;;
22715;SDS011;11525;51.152;4.456;2022-10-16T05:07:51;6.68;;;3.20;;
22715;SDS011;11525;51.152;4.456;2022-10-16T05:10:17;9.10;;;3.75;;
22715;SDS011;11525;51.152;4.456;2022-10-16T05:12:43;5.70;;;3.70;;
22715;SDS011;11525;51.152;4.456;2022-10-16T05:15:09;9.98;;;3.72;;
22715;SDS011;11525;51.152;4.456;2022-10-16T05:17:34;7.63;;;3.95;;
22715;SDS011;11525;51.152;4.456;2022-10-16T05:20:00;7.75;;;3.70;;
22715;SDS011;11525;51.152;4.456;2022-10-16T05:22:26;7.22;;;3.80;;
22715;SDS011;11525;51.152;4.456;2022-10-16T05:24:52;7.35;;;3.95;;
22715;SDS011;11525;51.152;4.456;2022-10-16T05:27:18;8.10;;;3.47;;
22715;SDS011;11525;51.152;4.456;2022-10-16T05:29:46;7.55;;;4.03;;
22715;SDS011;11525;51.152;4.456;2022-10-16T05:32:16;6.15;;;3.97;;
22715;SDS011;11525;51.152;4.456;2022-10-16T05:34:43;6.28;;;3.67;;
22715;SDS011;11525;51.152;4.456;2022-10-16T05:37:09;7.22;;;4.60;;
22715;SDS011;11525;51.152;4.456;2022-10-16T05:39:36;5.45;;;3.90;;
22715;SDS011;11525;51.152;4.456;2022-10-16T05:42:02;5.38;;;3.40;;
22715;SDS011;11525;51.152;4.456;2022-10-16T05:44:28;7.45;;;3.60;;
22715;SDS011;11525;51.152;4.456;2022-10-16T05:46:54;8.07;;;3.60;;
22715;SDS011;11525;51.152;4.456;2022-10-16T05:49:20;7.38;;;3.63;;
22715;SDS011;11525;51.152;4.456;2022-10-16T05:51:45;8.35;;;3.42;;
22715;SDS011;11525;51.152;4.456;2022-10-16T05:54:11;6.63;;;3.63;;
22715;SDS011;11525;51.152;4.456;2022-10-16T05:56:37;12.93;;;4.20;;
22715;SDS011;11525;51.152;4.456;2022-10-16T05:59:03;6.40;;;3.88;;
22715;SDS011;11525;51.152;4.456;2022-10-16T06:01:29;10.00;;;4.40;;
22715;SDS011;11525;51.152;4.456;2022-10-16T06:03:56;6.20;;;3.40;;
22715;SDS011;11525;51.152;4.456;2022-10-16T06:06:22;8.52;;;3.88;;
22715;SDS011;11525;51.152;4.456;2022-10-16T06:08:51;7.93;;;4.53;;
22715;SDS011;11525;51.152;4.456;2022-10-16T06:11:18;6.80;;;4.18;;
22715;SDS011;11525;51.152;4.456;2022-10-16T06:13:52;4.75;;;3.42;;
22715;SDS011;11525;51.152;4.456;2022-10-16T06:16:19;9.10;;;4.20;;
22715;SDS011;11525;51.152;4.456;2022-10-16T06:18:45;10.00;;;4.07;;
22715;SDS011;11525;51.152;4.456;2022-10-16T06:21:16;7.95;;;4.30;;
22715;SDS011;11525;51.152;4.456;2022-10-16T06:23:43;7.53;;;3.92;;
22715;SDS011;11525;51.152;4.456;2022-10-16T06:26:12;5.55;;;3.50;;
22715;SDS011;11525;51.152;4.456;2022-10-16T06:28:39;8.90;;;3.83;;
22715;SDS011;11525;51.152;4.456;2022-10-16T06:31:06;12.48;;;4.38;;
22715;SDS011;11525;51.152;4.456;2022-10-16T06:33:35;7.43;;;3.78;;
22715;SDS011;11525;51.152;4.456;2022-10-16T06:36:02;6.53;;;3.70;;
22715;SDS011;11525;51.152;4.456;2022-10-16T06:38:30;9.00;;;3.47;;
22715;SDS011;11525;51.152;4.456;2022-10-16T06:40:56;5.60;;;3.42;;
22715;SDS011;11525;51.152;4.456;2022-10-16T06:43:21;6.80;;;4.43;;
22715;SDS011;11525;51.152;4.456;2022-10-16T06:45:54;9.70;;;4.03;;
22715;SDS011;11525;51.152;4.456;2022-10-16T06:48:20;4.85;;;3.83;;
22715;SDS011;11525;51.152;4.456;2022-10-16T06:50:57;8.90;;;4.40;;
22715;SDS011;11525;51.152;4.456;2022-10-16T06:53:34;6.28;;;4.18;;
22715;SDS011;11525;51.152;4.456;2022-10-16T06:56:08;6.35;;;3.80;;
22715;SDS011;11525;51.152;4.456;2022-10-16T06:58:37;5.72;;;4.28;;
22715;SDS011;11525;51.152;4.456;2022-10-16T07:01:03;8.43;;;3.45;;
22715;SDS011;11525;51.152;4.456;2022-10-16T07:03:29;6.65;;;3.40;;
22715;SDS011;11525;51.152;4.456;2022-10-16T07:05:55;4.97;;;3.42;;
22715;SDS011;11525;51.152;4.456;2022-10-16T07:08:21;6.32;;;3.53;;
22715;SDS011;11525;51.152;4.456;2022-10-16T07:10:47;6.05;;;3.50;;
22715;SDS011;11525;51.152;4.456;2022-10-16T07:13:12;9.20;;;3.22;;
22715;SDS011;11525;51.152;4.456;2022-10-16T07:15:39;8.43;;;3.53;;
22715;SDS011;11525;51.152;4.456;2022-10-16T07:18:05;7.78;;;3.50;;
22715;SDS011;11525;51.152;4.456;2022-10-16T07:20:31;5.18;;;3.00;;
22715;SDS011;11525;51.152;4.456;2022-10-16T07:22:57;9.68;;;3.90;;
22715;SDS011;11525;51.152;4.456;2022-10-16T07:25:22;5.75;;;3.83;;
22715;SDS011;11525;51.152;4.456;2022-10-16T07:27:48;4.90;;;3.30;;
22715;SDS011;11525;51.152;4.456;2022-10-16T07:30:14;8.07;;;2.92;;
22715;SDS011;11525;51.152;4.456;2022-10-16T07:32:39;8.75;;;3.30;;
22715;SDS011;11525;51.152;4.456;2022-10-16T07:35:05;5.00;;;2.67;;
22715;SDS011;11525;51.152;4.456;2022-10-16T07:37:31;10.30;;;3.35;;
22715;SDS011;11525;51.152;4.456;2022-10-16T07:39:57;9.73;;;3.30;;
22715;SDS011;11525;51.152;4.456;2022-10-16T07:42:23;5.20;;;2.85;;
22715;SDS011;11525;51.152;4.456;2022-10-16T07:44:48;7.25;;;3.97;;
22715;SDS011;11525;51.152;4.456;2022-10-16T07:47:14;5.18;;;2.90;;
22715;SDS011;11525;51.152;4.456;2022-10-16T07:49:40;5.53;;;2.30;;
22715;SDS011;11525;51.152;4.456;2022-10-16T07:52:05;4.47;;;2.65;;
22715;SDS011;11525;51.152;4.456;2022-10-16T07:54:31;5.30;;;3.00;;
22715;SDS011;11525;51.152;4.456;2022-10-16T07:56:56;4.13;;;2.47;;
22715;SDS011;11525;51.152;4.456;2022-10-16T07:59:22;5.05;;;2.53;;
22715;SDS011;11525;51.152;4.456;2022-10-16T08:01:49;7.85;;;3.10;;
22715;SDS011;11525;51.152;4.456;2022-10-16T08:04:14;6.05;;;2.78;;
22715;SDS011;11525;51.152;4.456;2022-10-16T08:06:40;3.65;;;2.35;;
22715;SDS011;11525;51.152;4.456;2022-10-16T08:09:06;4.25;;;2.50;;
22715;SDS011;11525;51.152;4.456;2022-10-16T08:11:33;7.57;;;2.60;;
22715;SDS011;11525;51.152;4.456;2022-10-16T08:13:59;4.63;;;2.47;;
22715;SDS011;11525;51.152;4.456;2022-10-16T08:16:25;6.13;;;2.17;;
22715;SDS011;11525;51.152;4.456;2022-10-16T08:18:50;4.63;;;2.08;;
22715;SDS011;11525;51.152;4.456;2022-10-16T08:21:17;4.70;;;2.35;;
22715;SDS011;11525;51.152;4.456;2022-10-16T08:23:45;4.57;;;1.90;;
22715;SDS011;11525;51.152;4.456;2022-10-16T08:26:11;3.58;;;1.63;;
22715;SDS011;11525;51.152;4.456;2022-10-16T08:28:37;4.75;;;2.05;;
22715;SDS011;11525;51.152;4.456;2022-10-16T08:33:36;4.20;;;1.60;;
22715;SDS011;11525;51.152;4.456;2022-10-16T08:36:03;5.68;;;1.98;;
22715;SDS011;11525;51.152;4.456;2022-10-16T08:38:30;2.58;;;1.23;;
22715;SDS011;11525;51.152;4.456;2022-10-16T08:46:50;2.97;;;1.73;;
22715;SDS011;11525;51.152;4.456;2022-10-16T08:49:31;6.50;;;1.83;;
22715;SDS011;11525;51.152;4.456;2022-10-16T08:51:57;5.40;;;1.42;;
22715;SDS011;11525;51.152;4.456;2022-10-16T08:54:31;4.15;;;1.60;;
22715;SDS011;11525;51.152;4.456;2022-10-16T08:57:13;5.13;;;1.50;;
22715;SDS011;11525;51.152;4.456;2022-10-16T08:59:42;6.72;;;1.50;;
22715;SDS011;11525;51.152;4.456;2022-10-16T09:02:18;4.65;;;1.25;;
22715;SDS011;11525;51.152;4.456;2022-10-16T09:08:15;6.85;;;1.50;;
22715;SDS011;11525;51.152;4.456;2022-10-16T09:13:41;3.85;;;1.40;;
22715;SDS011;11525;51.152;4.456;2022-10-16T09:16:19;6.88;;;1.50;;
22715;SDS011;11525;51.152;4.456;2022-10-16T09:21:44;4.47;;;1.50;;
22715;SDS011;11525;51.152;4.456;2022-10-16T09:24:16;4.18;;;1.45;;
22715;SDS011;11525;51.152;4.456;2022-10-16T09:26:43;3.95;;;1.42;;
22715;SDS011;11525;51.152;4.456;2022-10-16T09:29:13;3.58;;;1.38;;
22715;SDS011;11525;51.152;4.456;2022-10-16T09:31:40;3.25;;;1.27;;
22715;SDS011;11525;51.152;4.456;2022-10-16T09:34:08;5.00;;;1.67;;
22715;SDS011;11525;51.152;4.456;2022-10-16T09:36:55;7.97;;;1.75;;
22715;SDS011;11525;51.152;4.456;2022-10-16T09:39:23;6.47;;;1.30;;
22715;SDS011;11525;51.152;4.456;2022-10-16T09:41:49;6.60;;;1.70;;
22715;SDS011;11525;51.152;4.456;2022-10-16T09:46:48;5.07;;;1.83;;
22715;SDS011;11525;51.152;4.456;2022-10-16T09:49:21;5.63;;;1.58;;
22715;SDS011;11525;51.152;4.456;2022-10-16T09:51:49;8.95;;;1.73;;
22715;SDS011;11525;51.152;4.456;2022-10-16T09:54:19;5.05;;;1.38;;
22715;SDS011;11525;51.152;4.456;2022-10-16T09:56:46;3.42;;;1.45;;
22715;SDS011;11525;51.152;4.456;2022-10-16T09:59:17;4.80;;;1.63;;
22715;SDS011;11525;51.152;4.456;2022-10-16T10:01:46;5.22;;;1.45;;
22715;SDS011;11525;51.152;4.456;2022-10-16T10:04:23;4.88;;;1.80;;
22715;SDS011;11525;51.152;4.456;2022-10-16T10:09:24;5.57;;;1.45;;
22715;SDS011;11525;51.152;4.456;2022-10-16T10:12:03;6.13;;;1.90;;
22715;SDS011;11525;51.152;4.456;2022-10-16T10:14:37;4.57;;;1.77;;
22715;SDS011;11525;51.152;4.456;2022-10-16T10:22:32;7.35;;;1.75;;
22715;SDS011;11525;51.152;4.456;2022-10-16T10:25:15;7.85;;;1.85;;
22715;SDS011;11525;51.152;4.456;2022-10-16T10:38:47;17.83;;;1.90;;
22715;SDS011;11525;51.152;4.456;2022-10-16T10:41:39;5.95;;;1.80;;
22715;SDS011;11525;51.152;4.456;2022-10-16T10:50:12;4.95;;;1.73;;
22715;SDS011;11525;51.152;4.456;2022-10-16T11:01:13;9.40;;;2.60;;
22715;SDS011;11525;51.152;4.456;2022-10-16T11:06:32;5.38;;;2.00;;
22715;SDS011;11525;51.152;4.456;2022-10-16T11:09:20;4.55;;;2.17;;
22715;SDS011;11525;51.152;4.456;2022-10-16T11:15:03;8.40;;;2.05;;
22715;SDS011;11525;51.152;4.456;2022-10-16T11:17:35;7.47;;;2.05;;
22715;SDS011;11525;51.152;4.456;2022-10-16T11:20:28;9.95;;;2.13;;
22715;SDS011;11525;51.152;4.456;2022-10-16T11:23:05;8.07;;;2.05;;
22715;SDS011;11525;51.152;4.456;2022-10-16T11:25:39;11.25;;;2.22;;
22715;SDS011;11525;51.152;4.456;2022-10-16T11:28:19;9.50;;;2.10;;
22715;SDS011;11525;51.152;4.456;2022-10-16T11:30:53;11.02;;;3.10;;
22715;SDS011;11525;51.152;4.456;2022-10-16T11:33:30;6.38;;;2.35;;
22715;SDS011;11525;51.152;4.456;2022-10-16T11:38:53;12.85;;;2.50;;
22715;SDS011;11525;51.152;4.456;2022-10-16T11:44:19;10.02;;;2.13;;
22715;SDS011;11525;51.152;4.456;2022-10-16T11:47:03;8.00;;;2.60;;
22715;SDS011;11525;51.152;4.456;2022-10-16T11:49:40;10.43;;;2.60;;
22715;SDS011;11525;51.152;4.456;2022-10-16T11:58:01;13.25;;;1.88;;
22715;SDS011;11525;51.152;4.456;2022-10-16T12:01:15;9.18;;;1.85;;
22715;SDS011;11525;51.152;4.456;2022-10-16T12:06:37;4.97;;;1.45;;
22715;SDS011;11525;51.152;4.456;2022-10-16T12:09:13;7.90;;;2.10;;
22715;SDS011;11525;51.152;4.456;2022-10-16T12:11:46;9.63;;;2.55;;
22715;SDS011;11525;51.152;4.456;2022-10-16T12:16:38;5.22;;;1.90;;
22715;SDS011;11525;51.152;4.456;2022-10-16T12:19:30;7.63;;;1.80;;
22715;SDS011;11525;51.152;4.456;2022-10-16T12:21:57;8.55;;;2.53;;
22715;SDS011;11525;51.152;4.456;2022-10-16T12:24:32;5.18;;;1.75;;
22715;SDS011;11525;51.152;4.456;2022-10-16T12:27:04;5.13;;;1.83;;
22715;SDS011;11525;51.152;4.456;2022-10-16T12:29:41;6.78;;;1.83;;
22715;SDS011;11525;51.152;4.456;2022-10-16T12:32:24;8.77;;;1.88;;
22715;SDS011;11525;51.152;4.456;2022-10-16T12:34:50;6.03;;;1.92;;
22715;SDS011;11525;51.152;4.456;2022-10-16T12:37:26;5.57;;;2.10;;
22715;SDS011;11525;51.152;4.456;2022-10-16T12:39:55;8.68;;;2.10;;
22715;SDS011;11525;51.152;4.456;2022-10-16T12:44:51;6.75;;;2.30;;
22715;SDS011;11525;51.152;4.456;2022-10-16T12:49:50;5.32;;;1.75;;
22715;SDS011;11525;51.152;4.456;2022-10-16T12:52:29;3.50;;;1.55;;
22715;SDS011;11525;51.152;4.456;2022-10-16T12:55:02;7.70;;;1.90;;
22715;SDS011;11525;51.152;4.456;2022-10-16T13:00:24;4.75;;;1.90;;
22715;SDS011;11525;51.152;4.456;2022-10-16T13:03:21;5.70;;;2.10;;
22715;SDS011;11525;51.152;4.456;2022-10-16T13:06:16;4.75;;;1.67;;
22715;SDS011;11525;51.152;4.456;2022-10-16T13:14:30;9.00;;;1.80;;
22715;SDS011;11525;51.152;4.456;2022-10-16T13:17:37;4.60;;;1.35;;
22715;SDS011;11525;51.152;4.456;2022-10-16T13:25:52;5.53;;;1.20;;
22715;SDS011;11525;51.152;4.456;2022-10-16T13:28:34;5.20;;;1.48;;
22715;SDS011;11525;51.152;4.456;2022-10-16T13:31:02;4.18;;;1.30;;
22715;SDS011;11525;51.152;4.456;2022-10-16T13:33:39;4.60;;;1.50;;
22715;SDS011;11525;51.152;4.456;2022-10-16T13:36:17;4.82;;;1.08;;
22715;SDS011;11525;51.152;4.456;2022-10-16T13:38:46;5.18;;;1.65;;
22715;SDS011;11525;51.152;4.456;2022-10-16T13:41:13;2.75;;;1.45;;
22715;SDS011;11525;51.152;4.456;2022-10-16T13:43:51;3.83;;;1.30;;
22715;SDS011;11525;51.152;4.456;2022-10-16T13:46:19;5.60;;;1.38;;
22715;SDS011;11525;51.152;4.456;2022-10-16T13:48:59;4.32;;;1.70;;
22715;SDS011;11525;51.152;4.456;2022-10-16T13:51:26;3.10;;;1.25;;
22715;SDS011;11525;51.152;4.456;2022-10-16T13:53:52;4.68;;;1.50;;
22715;SDS011;11525;51.152;4.456;2022-10-16T13:56:21;2.70;;;1.67;;
22715;SDS011;11525;51.152;4.456;2022-10-16T13:58:59;4.95;;;1.42;;
22715;SDS011;11525;51.152;4.456;2022-10-16T14:01:33;6.18;;;1.63;;
22715;SDS011;11525;51.152;4.456;2022-10-16T14:04:07;5.55;;;1.58;;
22715;SDS011;11525;51.152;4.456;2022-10-16T14:06:35;5.65;;;1.83;;
22715;SDS011;11525;51.152;4.456;2022-10-16T14:09:05;3.30;;;1.50;;
22715;SDS011;11525;51.152;4.456;2022-10-16T14:11:53;4.60;;;1.52;;
22715;SDS011;11525;51.152;4.456;2022-10-16T14:14:20;4.35;;;1.50;;
22715;SDS011;11525;51.152;4.456;2022-10-16T14:16:46;6.10;;;2.25;;
22715;SDS011;11525;51.152;4.456;2022-10-16T14:19:15;3.72;;;1.70;;
22715;SDS011;11525;51.152;4.456;2022-10-16T14:21:51;8.77;;;1.60;;
22715;SDS011;11525;51.152;4.456;2022-10-16T14:26:56;4.55;;;1.65;;
22715;SDS011;11525;51.152;4.456;2022-10-16T14:29:23;6.25;;;1.58;;
22715;SDS011;11525;51.152;4.456;2022-10-16T14:34:26;3.72;;;1.63;;
22715;SDS011;11525;51.152;4.456;2022-10-16T14:36:55;3.42;;;1.30;;
22715;SDS011;11525;51.152;4.456;2022-10-16T14:39:21;5.70;;;1.40;;
22715;SDS011;11525;51.152;4.456;2022-10-16T14:41:49;5.07;;;1.52;;
22715;SDS011;11525;51.152;4.456;2022-10-16T14:44:17;6.00;;;1.70;;
22715;SDS011;11525;51.152;4.456;2022-10-16T14:46:44;7.35;;;1.73;;
22715;SDS011;11525;51.152;4.456;2022-10-16T14:51:40;3.22;;;1.20;;
22715;SDS011;11525;51.152;4.456;2022-10-16T14:54:11;2.35;;;1.20;;
22715;SDS011;11525;51.152;4.456;2022-10-16T14:56:43;2.53;;;1.45;;
22715;SDS011;11525;51.152;4.456;2022-10-16T14:59:37;10.32;;;1.60;;
22715;SDS011;11525;51.152;4.456;2022-10-16T15:02:23;4.00;;;1.70;;
22715;SDS011;11525;51.152;4.456;2022-10-16T15:04:55;6.47;;;1.95;;
22715;SDS011;11525;51.152;4.456;2022-10-16T15:07:21;4.15;;;2.00;;
22715;SDS011;11525;51.152;4.456;2022-10-16T15:09:47;3.90;;;2.10;;
22715;SDS011;11525;51.152;4.456;2022-10-16T15:12:13;3.38;;;1.80;;
22715;SDS011;11525;51.152;4.456;2022-10-16T15:14:38;4.60;;;2.15;;
22715;SDS011;11525;51.152;4.456;2022-10-16T15:17:04;5.43;;;1.65;;
22715;SDS011;11525;51.152;4.456;2022-10-16T15:19:30;6.97;;;1.77;;
22715;SDS011;11525;51.152;4.456;2022-10-16T15:21:55;5.68;;;2.00;;
22715;SDS011;11525;51.152;4.456;2022-10-16T15:24:21;10.18;;;2.00;;
22715;SDS011;11525;51.152;4.456;2022-10-16T15:26:47;3.97;;;1.70;;
22715;SDS011;11525;51.152;4.456;2022-10-16T15:29:14;5.82;;;1.85;;
22715;SDS011;11525;51.152;4.456;2022-10-16T15:31:40;3.28;;;1.63;;
22715;SDS011;11525;51.152;4.456;2022-10-16T15:34:10;6.18;;;2.40;;
22715;SDS011;11525;51.152;4.456;2022-10-16T15:36:39;4.47;;;1.85;;
22715;SDS011;11525;51.152;4.456;2022-10-16T15:39:06;4.22;;;2.15;;
22715;SDS011;11525;51.152;4.456;2022-10-16T15:41:40;5.22;;;2.03;;
22715;SDS011;11525;51.152;4.456;2022-10-16T15:44:06;9.45;;;2.40;;
22715;SDS011;11525;51.152;4.456;2022-10-16T15:46:32;5.22;;;2.17;;
22715;SDS011;11525;51.152;4.456;2022-10-16T15:48:59;3.75;;;1.73;;
22715;SDS011;11525;51.152;4.456;2022-10-16T15:51:26;5.20;;;1.92;;
22715;SDS011;11525;51.152;4.456;2022-10-16T15:53:58;3.95;;;1.80;;
22715;SDS011;11525;51.152;4.456;2022-10-16T15:56:26;4.30;;;2.30;;
22715;SDS011;11525;51.152;4.456;2022-10-16T15:58:53;3.97;;;2.03;;
22715;SDS011;11525;51.152;4.456;2022-10-16T16:01:20;7.57;;;2.50;;
22715;SDS011;11525;51.152;4.456;2022-10-16T16:03:46;5.43;;;2.72;;
22715;SDS011;11525;51.152;4.456;2022-10-16T16:06:12;5.00;;;2.83;;
22715;SDS011;11525;51.152;4.456;2022-10-16T16:08:39;7.55;;;2.85;;
22715;SDS011;11525;51.152;4.456;2022-10-16T16:11:12;10.80;;;3.85;;
22715;SDS011;11525;51.152;4.456;2022-10-16T16:13:38;2.60;;;2.30;;
22715;SDS011;11525;51.152;4.456;2022-10-16T16:16:08;5.70;;;2.83;;
22715;SDS011;11525;51.152;4.456;2022-10-16T16:18:39;6.22;;;2.67;;
22715;SDS011;11525;51.152;4.456;2022-10-16T16:21:05;8.05;;;4.80;;
22715;SDS011;11525;51.152;4.456;2022-10-16T16:23:32;9.45;;;6.43;;
22715;SDS011;11525;51.152;4.456;2022-10-16T16:26:02;9.30;;;5.20;;
22715;SDS011;11525;51.152;4.456;2022-10-16T16:28:28;7.78;;;4.10;;
22715;SDS011;11525;51.152;4.456;2022-10-16T16:30:53;11.85;;;5.53;;
22715;SDS011;11525;51.152;4.456;2022-10-16T16:33:19;11.43;;;5.30;;
22715;SDS011;11525;51.152;4.456;2022-10-16T16:35:45;10.50;;;5.60;;
22715;SDS011;11525;51.152;4.456;2022-10-16T16:38:11;10.20;;;6.63;;
22715;SDS011;11525;51.152;4.456;2022-10-16T16:40:36;7.53;;;4.25;;
22715;SDS011;11525;51.152;4.456;2022-10-16T16:43:02;6.90;;;3.67;;
22715;SDS011;11525;51.152;4.456;2022-10-16T16:45:29;6.07;;;3.42;;
22715;SDS011;11525;51.152;4.456;2022-10-16T16:47:54;7.78;;;3.50;;
22715;SDS011;11525;51.152;4.456;2022-10-16T16:50:20;6.88;;;3.15;;
22715;SDS011;11525;51.152;4.456;2022-10-16T16:52:45;5.68;;;2.80;;
22715;SDS011;11525;51.152;4.456;2022-10-16T16:55:11;7.82;;;3.60;;
22715;SDS011;11525;51.152;4.456;2022-10-16T16:57:37;6.70;;;3.33;;
22715;SDS011;11525;51.152;4.456;2022-10-16T17:00:03;10.77;;;4.07;;
22715;SDS011;11525;51.152;4.456;2022-10-16T17:02:29;12.23;;;3.30;;
22715;SDS011;11525;51.152;4.456;2022-10-16T17:04:54;10.93;;;3.72;;
22715;SDS011;11525;51.152;4.456;2022-10-16T17:07:22;7.75;;;3.70;;
22715;SDS011;11525;51.152;4.456;2022-10-16T17:09:50;5.85;;;3.38;;